Detall de PIREP

Printer-friendly versionPDF version

[2010/08/18 14:12:00]
Flight IATA:CT0001
Pilot Number:041
Company ICAO:CAT
Aircraft Type:F28/A
PAX:79
Departing Airport: LEGE
Destination Airport: LELC
Alternate Airport:LEAL
Online: VATSIM
Route:BGR2H G7 LANDA G7 BCN B28 RODRA B28 PEXOT B28 EBROX B28 LOTOS SOPET B28 VLC ALT PALOS1C
Flight Level:FL170
No Slew and time accel
No pause
Crash detect
Detect pilot in Cockpit between each 30 and 45 minutes
14:12 Zero fuel Weight: 61027 Lbs, Fuel Weight: 11371 Lbs
14:12 VATSIM:LEGE 181400Z 17013KT 9999 FEW035 29/19 Q1012
14:12 VATSIM:LELC 181400Z 13010KT 100V170 9999 FEW020 29/21 Q1012 NOSIG
14:12 VOICE CATALONIAN
14:14 Parking Brakes off
14:25 Take-off
14:25 Take off Weight: 71767 Lbs
14:25 Wind: 171º @ 010 Knots Heading: 195º
14:25 POS N41º 53´ 54´´ E002º 45´ 34´´
14:25 Gear Up: 163 Knots
14:25 Flaps:2 at 163 Knots
14:26 Flaps:1 at 188 Knots
14:26 Flaps:0 at 215 Knots
14:37 TOC
14:37 Fuel Weight: 9286 Lb
14:40 Wind:247º@016 Knots Heading: 232º Ground Speed: 359 Knots Altitude 16991 ft
14:55 Wind:254º@012 Knots Heading: 228º Ground Speed: 368 Knots Altitude 17024 ft
15:10 Wind:194º@011 Knots Heading: 193º Ground Speed: 369 Knots Altitude 16981 ft
15:16 TOD
15:16 Fuel Weight: 6206 Lb
15:25 Wind:163º@004 Knots Heading: 175º Ground Speed: 281 Knots Altitude 8989 ft
15:37 Flaps:1 at 214 Knots
15:40 Wind:154º@002 Knots Heading: 309º Ground Speed: 213 Knots Altitude 3526 ft
15:40 Flaps:2 at 199 Knots
15:43 Flaps:3 at 191 Knots
15:44 Gear Down: 177 Knots
15:44 Flaps:4 at 153 Knots
15:48 TouchDown:Rate -241 ft/min Speed: 125 Knots
15:48 VATSIM:LELC 181500Z 15010KT 110V190 9999 FEW020 29/21 Q1012 NOSIG
15:48 Land
15:48 Wind:158º@007 Knots
15:48 Heading: 052º
15:48 Flight Duration: 01:23
15:48 Landing Weight: 65707 Lbs
15:48 POS N37º 46´ 31´´ W000º 48´ 42´´
15:53 Parking brakes on
15:53 Block to Block Duration: 01:39
15:53 Final Fuel: 4477 Lbls
15:53 Spent Fuel: 6893 Lbls
15:53 Flight Length: 422 NM
15:53 TOD Land Length: 128 NM

Exportar CSV

Powered by Drupal - Modified by Danger4k